Hartford, Michigan
Current Conditions -  °F | °C
As of 2:14 PM on Friday 28 Nov 2014 (Local Time) from KLWA Reporting Station
Overcast Overcast  
Wind Chill: 16°   Ceiling: 7500
Heat Index: 26°   Visibility: 10mi
Dew Point: 19°   Wind: 10mph
Humidity: 73%   Direction: 160°SSE
Pressure: 30.13"   Gusts: NA
Location:  42.21°N, 86.17°W
Report Text: KLWA 281914Z AUTO 16009KT 10SM OVC075 M03/M07 A3013 RMK AO2 T10331075
Loading
Personal Weather Stations






























Interactive Weather Map New forecast layout! Learn more

10-Day Weather Forecast

Advertisements
Track Severe Weather on mobile